• Join FlightAware (Why Join?)
  • Login
  • US Flag 
07:46PM EDT


 

Airport Tracker/Info


-or-


 

Live Flight TrackerFlight Track Log ✈ DCM6419 ✈ 28-Jun-2013 ✈ KPQL - KGGG

Flight Track Log - Related Links

Times and Time Zones

All times are in EDT time to prevent confusion due to time zone crossing. See the DCM6419 flight status page for this flight to view local times or setup timezone preferences in your user account.

Time Position Orientation Groundspeed Altitude Reporting Facility
EDT Latitude Longitude Course Direction KTS MPH feet Rate Location/Type
02:26PM 30.5406 -88.5531 270° West 172 198 3,200  Level Houston Center
02:27PM 30.5903 -88.5514 North 178 205 5,300 1,980 Climbing Houston Center
02:28PM 30.6242 -88.5894 316° Northwest 165 190 7,400 1,920 Climbing Houston Center
02:29PM 30.6528 -88.6342 307° West 169 194 9,300 1,260 Climbing Houston Center
02:30PM 30.6617 -88.6944 280° West 192 221 10,100 780 Climbing Houston Center
02:31PM 30.6000 -88.9402 270° West  Level FlightAware Approximate
02:31PM 30.6789 -88.7833 283° West 228 262 11,000  Level Houston Center
02:32PM 30.7003 -88.8492 291° West 218 251 12,700 1,620 Climbing Houston Center
02:33PM 30.7178 -88.9147 287° West 215 247 14,400 1,560 Climbing Houston Center
02:34PM 30.7344 -88.9811 286° West 211 243 16,000 1,380 Climbing Houston Center
02:35PM 30.7561 -89.0458 291° West 214 246 17,300 1,200 Climbing Houston Center
02:36PM 30.7786 -89.1117 292° West 218 251 18,500 1,200 Climbing Houston Center
02:37PM 30.8069 -89.1900 293° West 220 253 19,900 1,200 Climbing Houston Center
02:38PM 30.8272 -89.2528 291° West 213 245 21,000 780 Climbing Houston Center
02:39PM 30.8450 -89.3203 287° West 217 250 21,600 480 Climbing Houston Center
02:40PM 30.8681 -89.3897 291° West 228 262 22,000 180 Climbing Houston Center
02:41PM 30.8906 -89.4664 289° West 247 284 22,000  Level Houston Center
02:42PM 30.9217 -89.5586 291° West 255 293 22,000  Level Houston Center
02:43PM 30.9481 -89.6364 292° West 258 297 22,000  Level Houston Center
02:44PM 30.9725 -89.7136 290° West 256 295 22,000  Level Houston Center
02:45PM 30.9967 -89.7903 290° West 254 292 22,000  Level Houston Center
02:46PM 31.0192 -89.8686 289° West 255 293 22,000  Level Houston Center
02:47PM 31.0478 -89.9614 290° West 254 292 22,000  Level Houston Center
02:48PM 31.0714 -90.0392 290° West 254 292 22,000  Level Houston Center
02:49PM 31.0961 -90.1167 290° West 254 292 22,000  Level Houston Center
02:50PM 31.1222 -90.1950 291° West 259 298 22,000  Level Houston Center
02:51PM 31.1475 -90.2731 291° West 257 296 22,000  Level Houston Center
02:53PM 31.1781 -90.3675 291° West 259 298 22,000  Level Houston Center
02:54PM 31.2014 -90.4467 289° West 258 297 22,000  Level Houston Center
02:55PM 31.2261 -90.5239 291° West 254 292 22,000  Level Houston Center
02:56PM 31.2506 -90.6025 290° West 256 295 22,000  Level Houston Center
02:57PM 31.2758 -90.6814 291° West 259 298 22,000  Level Houston Center
02:58PM 31.3003 -90.7600 290° West 258 297 22,000  Level Houston Center
02:59PM 31.3303 -90.8550 290° West 260 299 22,000  Level Houston Center
03:00PM 31.3533 -90.9358 288° West 262 302 22,000  Level Houston Center
03:01PM 31.3775 -91.0167 289° West 264 304 22,000  Level Houston Center
03:02PM 31.4011 -91.0967 289° West 260 299 22,000  Level Houston Center
03:03PM 31.4278 -91.1914 288° West 261 300 22,000  Level Houston Center
03:04PM 31.4506 -91.2717 288° West 260 299 22,000  Level Houston Center
03:05PM 31.4719 -91.3486 288° West 250 288 22,000  Level Houston Center
03:06PM 31.4922 -91.4261 287° West 249 287 22,000  Level Houston Center
03:07PM 31.5119 -91.5006 287° West 242 278 22,000  Level Houston Center
03:08PM 31.5336 -91.5792 288° West 250 288 22,000  Level Houston Center
03:09PM 31.5581 -91.6744 287° West 255 293 22,100  Climbing Houston Center
03:10PM 31.5786 -91.7536 287° West 255 293 22,100  Level Houston Center
03:11PM 31.6017 -91.8294 290° West 249 287 22,100 -180 Level Houston Center
03:12PM 31.6225 -91.9042 288° West 243 280 21,800 -540 Descending Houston Center
03:13PM 31.6447 -91.9850 288° West 257 296 21,000 -780 Descending Houston Center
03:14PM 31.6733 -92.0825 289° West 263 303 20,300 -540 Descending Houston Center
03:15PM 31.6961 -92.1647 288° West 265 305 20,000 -180 Descending Houston Center
03:16PM 31.7136 -92.2450 284° West 259 298 20,000  Level Houston Center
03:17PM 31.7314 -92.3217 285° West 250 288 20,000 -180 Level Houston Center
03:18PM 31.7517 -92.3983 287° West 247 284 19,700 -600 Descending Houston Center
03:19PM 31.7717 -92.4986 283° West 261 300 18,800 -720 Descending Houston Center
03:20PM 31.7908 -92.5817 285° West 265 305 18,200 -600 Descending Houston Center
03:22PM 31.8169 -92.6619 291° West 264 304 17,600 -540 Descending Houston Center
03:23PM 31.8411 -92.7442 289° West 267 307 17,200 -360 Descending Houston Center
03:24PM 31.8661 -92.8267 290° West 268 308 16,900 -360 Descending Houston Center
03:25PM 31.8992 -92.9244 292° West 270 311 16,500 -360 Descending Houston Center
03:26PM 31.9261 -93.0067 291° West 270 311 16,200 -240 Descending Houston Center
03:27PM 31.9547 -93.0872 293° West 268 308 16,100 -60 Descending Houston Center
03:28PM 31.9819 -93.1653 292° West 261 300 16,100  Level Houston Center
03:29PM 32.0047 -93.2442 289° West 257 296 16,100  Level Houston Center
03:30PM 32.0258 -93.3256 287° West 259 298 16,100  Level Houston Center
03:31PM 32.0511 -93.4206 287° West 255 293 16,100  Level Houston Center
03:32PM 32.0717 -93.5025 287° West 260 299 16,100 -360 Level Houston Center
03:33PM 32.0942 -93.5836 288° West 261 300 15,400 -720 Descending Houston Center